Latest Weather Observations for Milingimbi

IDD60801

Issued at 10:35 pm CST Sunday 23 November 2014 (issued every 30 minutes, with the page automatically refreshed every 10 minutes)

About weather observations | Map of weather stations | Latest weather observations for NT | Other Formats
Station Details ID: 014404 Name: MILINGIMBI AIRPORT Lat: -12.09 Lon: 134.89 Height: 15.0 m
Data from the previous 72 hours. | See also: Recent months at Milingimbi
Date/Time
CST
Temp
°C
App
Temp
°C
Dew
Point
Rel
Hum
%
Delta-T
°C
Wind Press
QNH
hPa
Press
MSL
hPa
Rain
since 9 am
mm
Dir
 
Spd
km/h
Gust
km/h
Spd
kts
Gust
kts
23/10:30pm 28.5 32.8 23.6 75 3.4 NE 7 15 4 8 1010.4 - 0.0
23/10:00pm 28.6 32.6 23.7 75 3.4 NE 9 15 5 8 1010.3 - 0.0
23/09:30pm 28.6 32.2 23.7 75 3.4 NE 11 17 6 9 1010.0 - 0.0
23/09:00pm 28.7 32.6 23.6 74 3.5 NE 9 17 5 9 1009.6 1009.4 0.0
23/08:30pm 28.7 32.2 23.6 74 3.5 NE 11 20 6 11 1009.5 - 0.0
23/08:00pm 28.8 32.4 23.7 74 3.5 NNE 11 17 6 9 1009.3 - 0.0
23/07:30pm 28.9 32.5 23.8 74 3.5 NE 11 24 6 13 1008.8 - 0.0
23/07:00pm 29.1 31.8 23.5 72 3.9 NE 15 28 8 15 1008.5 - 0.0
23/06:30pm 29.4 32.4 23.3 69 4.2 NNE 13 22 7 12 1008.4 - 0.0
23/06:00pm 29.9 32.8 23.1 67 4.7 NNE 13 20 7 11 1008.3 1008.1 0.0
23/05:30pm 30.5 33.2 23.4 66 4.9 N 15 26 8 14 1008.1 - 0.0
23/05:00pm 31.5 34.8 23.9 64 5.3 NNE 13 20 7 11 1008.0 - 0.0
23/04:30pm 31.6 34.3 23.4 61 5.7 NNE 15 26 8 14 1008.2 - 0.0
23/04:00pm 31.8 34.4 23.3 60 5.9 NNE 15 30 8 16 1008.3 - 0.0
23/03:30pm 32.2 34.9 23.4 59 6.1 NNE 15 26 8 14 1008.4 - 0.0
23/03:00pm 31.3 32.9 22.9 61 5.8 NNE 19 26 10 14 1008.8 1008.6 0.0
23/02:30pm 32.5 35.3 23.7 59 6.1 N 15 26 8 14 1009.3 - 0.0
23/02:00pm 31.9 34.1 22.6 58 6.4 N 15 24 8 13 1009.7 - 0.0
23/01:30pm 33.1 35.0 22.8 54 7.1 NNE 17 26 9 14 1010.0 - 0.0
23/01:00pm 33.7 35.3 21.5 49 8.3 NE 15 24 8 13 1010.4 - 0.0
23/12:30pm 33.5 35.4 21.3 48 8.2 E 13 22 7 12 1010.8 - 0.0
23/12:00pm 33.0 34.5 21.2 50 8.0 E 15 24 8 13 1011.2 1011.0 0.0
23/11:30am 33.0 34.0 20.2 47 8.5 ENE 15 24 8 13 1011.4 - 0.0
23/11:00am 32.6 33.2 19.5 46 8.6 ENE 15 24 8 13 1011.8 - 0.0
23/10:30am 33.0 33.1 18.4 42 9.5 ENE 15 20 8 11 1011.8 - 0.0
23/10:00am 32.6 35.1 21.1 50 7.7 E 9 19 5 10 1012.0 - 0.0
23/09:30am 31.6 34.2 22.0 56 6.5 E 11 15 6 8 1012.1 - 0.0
23/09:00am 31.1 34.0 22.4 60 5.9 ENE 11 20 6 11 1012.0 1011.8 0.0
23/08:30am 31.6 34.5 23.2 61 5.8 E 13 17 7 9 1012.1 - 0.0
23/08:00am 30.5 34.6 23.2 65 5.0 ENE 7 15 4 8 1011.9 - 0.0
23/07:30am 29.5 33.4 23.0 68 4.4 NE 7 13 4 7 1011.7 - 0.0
23/07:00am 28.3 33.0 23.9 77 3.0 NE 6 9 3 5 1011.3 - 0.0
23/06:30am 26.1 31.1 23.8 87 1.6 NE 4 7 2 4 1011.0 - 0.0
23/06:00am 25.9 31.4 23.4 86 1.7 CALM 0 4 0 2 1010.6 1010.4 0.0
23/05:30am 26.2 31.8 23.5 85 1.8 CALM 0 6 0 3 1010.4 - 0.0
23/05:00am 26.7 32.3 23.6 83 2.1 CALM 0 0 0 0 1010.2 - 0.0
23/04:30am 27.2 32.9 23.7 81 2.4 CALM 0 0 0 0 1010.1 - 0.0
23/04:00am 27.7 32.4 23.9 80 2.6 E 6 7 3 4 1010.0 - 0.0
23/03:30am 27.7 32.2 23.7 79 2.8 E 6 7 3 4 1009.9 - 0.0
23/03:00am 28.0 32.3 23.6 77 3.0 E 7 11 4 6 1010.0 1009.8 0.0
23/02:30am 28.1 32.6 23.7 77 3.0 NE 6 11 3 6 1009.8 - 0.0
23/02:00am 28.0 32.6 23.8 78 2.9 ENE 6 9 3 5 1009.9 - 0.0
23/01:30am 28.1 32.9 23.5 76 3.2 NE 4 9 2 5 1010.2 - 0.0
23/01:00am 28.4 33.0 23.8 76 3.2 ENE 6 11 3 6 1010.4 - 0.0
23/12:30am 28.5 33.0 23.9 76 3.2 NE 7 13 4 7 1010.6 - 0.0
23/12:00am 28.5 32.4 23.6 75 3.4 ENE 9 15 5 8 1010.9 1010.7 0.0
 
Date/Time
CST
Temp
°C
App
Temp
°C
Dew
Point
Rel
Hum
%
Delta-T
°C
Wind Press
QNH
hPa
Press
MSL
hPa
Rain
since 9 am
mm
Dir
 
Spd
km/h
Gust
km/h
Spd
kts
Gust
kts
22/11:30pm 28.5 33.1 24.1 77 3.0 NE 7 11 4 6 1011.0 - 0.0
22/11:00pm 28.4 33.0 24.2 78 2.9 NE 7 11 4 6 1011.0 - 0.0
22/10:30pm 28.3 32.8 23.9 77 3.0 NE 7 9 4 5 1011.0 - 0.0
22/10:00pm 28.7 33.7 23.8 75 3.4 NNE 4 7 2 4 1010.9 - 0.0
22/09:30pm 28.9 33.4 24.0 75 3.4 NNE 7 13 4 7 1010.7 - 0.0
22/09:00pm 29.0 33.5 23.7 73 3.7 NNE 6 11 3 6 1010.4 1010.2 0.0
22/08:30pm 29.1 32.8 23.3 71 4.0 NNE 9 17 5 9 1010.3 - 0.0
22/08:00pm 29.3 33.8 24.0 73 3.7 N 7 13 4 7 1009.9 - 0.0
22/07:30pm 29.3 33.1 24.0 73 3.7 N 11 17 6 9 1009.4 - 0.0
22/07:00pm 29.6 33.7 24.0 72 3.9 N 9 20 5 11 1009.0 - 0.0
22/06:30pm 29.9 33.5 23.8 70 4.2 NNE 11 22 6 12 1008.9 - 0.0
22/06:00pm 30.3 32.8 23.2 65 4.9 N 15 26 8 14 1008.8 1008.6 0.0
22/05:30pm 31.3 34.0 22.9 61 5.8 N 13 20 7 11 1008.6 - 0.0
22/05:00pm 31.9 35.5 23.7 62 5.7 N 11 26 6 14 1008.6 - 0.0
22/04:30pm 31.7 34.4 23.5 62 5.7 N 15 24 8 13 1008.6 - 0.0
22/04:00pm 32.5 35.4 23.2 58 6.4 N 13 24 7 13 1008.6 - 0.0
22/03:30pm 33.2 36.3 23.5 56 6.7 N 13 22 7 12 1008.9 - 0.0
22/03:00pm 33.3 35.9 22.7 53 7.3 N 13 24 7 13 1009.1 1008.9 0.0
22/02:30pm 34.2 37.1 23.2 52 7.6 N 13 26 7 14 1009.5 - 0.0
22/02:00pm 33.3 35.7 23.0 54 7.1 NNE 15 26 8 14 1009.8 - 0.0
22/01:30pm 33.0 34.9 22.7 54 7.1 N 17 26 9 14 1010.0 - 0.0
22/01:00pm 33.6 34.8 21.4 48 8.3 ENE 17 28 9 15 1010.5 - 0.0
22/12:30pm 33.5 35.0 21.3 48 8.2 ENE 15 28 8 15 1011.1 - 0.0
22/12:00pm 32.7 33.6 21.5 51 7.6 E 19 28 10 15 1011.1 1010.9 0.0
22/11:30am 32.3 34.9 23.3 59 6.2 ENE 15 24 8 13 1011.6 - 0.0
22/11:00am 32.3 34.5 23.3 59 6.2 NE 17 28 9 15 1011.9 - 0.0
22/10:30am 31.8 34.3 23.1 60 6.0 ENE 15 24 8 13 1012.1 - 0.0
22/10:00am 32.1 34.2 22.5 57 6.6 ENE 15 26 8 14 1012.1 - 0.0
22/09:30am 32.1 34.6 22.5 57 6.6 E 13 20 7 11 1012.3 - 0.0
22/09:00am 31.6 34.7 22.9 60 6.0 ENE 11 19 6 10 1012.4 1012.2 0.0
22/08:30am 31.3 34.9 23.1 61 5.6 ENE 9 17 5 9 1012.0 - 0.0
22/08:00am 31.0 34.8 23.4 64 5.2 E 9 17 5 9 1011.6 - 0.0
22/07:30am 29.8 33.4 23.0 67 4.7 NE 9 13 5 7 1011.2 - 0.0
22/07:00am 28.7 33.2 23.6 74 3.5 NE 6 7 3 4 1011.1 - 0.0
22/06:30am 26.5 31.0 23.6 84 2.0 NE 6 9 3 5 1010.8 - 0.0
22/06:00am 25.5 30.9 23.2 87 1.6 CALM 0 0 0 0 1010.4 1010.2 0.0
22/05:30am 25.5 30.8 23.0 86 1.7 CALM 0 4 0 2 1010.1 - 0.0
22/05:00am 25.8 30.7 23.1 85 1.8 N 2 6 1 3 1009.9 - 0.0
22/04:30am 26.2 31.0 22.9 82 2.2 NNE 2 7 1 4 1009.6 - 0.0
22/04:00am 27.1 31.7 23.1 79 2.7 NE 4 7 2 4 1009.4 - 0.0
22/03:30am 27.5 31.8 23.3 78 2.9 NE 6 9 3 5 1009.3 - 0.0
22/03:00am 27.9 32.1 23.5 77 3.0 NE 7 13 4 7 1009.3 1009.1 0.0
22/02:30am 28.2 31.6 23.3 75 3.4 ENE 11 17 6 9 1009.3 - 0.0
22/02:00am 28.3 32.3 23.7 76 3.2 NE 9 20 5 11 1009.6 - 0.0
22/01:30am 28.5 32.0 23.6 75 3.4 ENE 11 17 6 9 1009.9 - 0.0
22/01:00am 28.4 31.9 23.5 75 3.4 ENE 11 17 6 9 1010.0 - 0.0
22/12:30am 28.7 32.2 23.6 74 3.5 NE 11 17 6 9 1010.4 - 0.0
22/12:00am 28.9 33.4 24.0 75 3.4 ENE 7 11 4 6 1010.4 1010.2 0.0
 
Date/Time
CST
Temp
°C
App
Temp
°C
Dew
Point
Rel
Hum
%
Delta-T
°C
Wind Press
QNH
hPa
Press
MSL
hPa
Rain
since 9 am
mm
Dir
 
Spd
km/h
Gust
km/h
Spd
kts
Gust
kts
21/11:30pm 28.8 33.4 24.1 76 3.3 NE 7 13 4 7 1010.3 - 0.0
21/11:00pm 28.3 33.1 24.1 78 2.9 NE 6 9 3 5 1010.3 - 0.0
21/10:30pm 28.0 33.1 24.0 79 2.8 NE 4 7 2 4 1010.4 - 0.0
21/10:00pm 28.0 33.8 24.0 79 2.8 CALM 0 7 0 4 1010.1 - 0.0
21/09:30pm 28.5 33.6 24.1 77 3.0 NNE 4 7 2 4 1009.9 - 0.0
21/09:00pm 28.7 33.2 24.0 76 3.3 NE 7 11 4 6 1009.6 1009.4 0.0
21/08:30pm 28.7 33.4 24.0 76 3.3 N 6 13 3 7 1009.5 - 0.0
21/08:00pm 28.7 33.4 24.0 76 3.3 N 6 13 3 7 1009.2 - 0.0
21/07:30pm 28.9 33.4 24.0 75 3.4 N 7 15 4 8 1009.1 - 0.0
21/07:00pm 29.0 33.2 24.1 75 3.4 N 9 20 5 11 1008.7 - 0.0
21/06:30pm 29.1 32.7 23.8 73 3.7 N 11 20 6 11 1008.6 - 0.0
21/06:00pm 29.9 33.5 23.8 70 4.2 N 11 19 6 10 1008.5 1008.3 0.0
21/05:30pm 30.0 33.3 23.9 70 4.2 N 13 24 7 13 1008.5 - 0.0
21/05:00pm 30.3 33.4 23.5 67 4.7 N 13 24 7 13 1008.6 - 0.0
21/04:30pm 30.7 33.6 23.9 67 4.7 N 15 24 8 13 1008.6 - 0.0
21/04:00pm 31.3 34.1 23.7 64 5.3 N 15 24 8 13 1008.6 - 0.0
21/03:30pm 32.2 35.0 23.7 61 5.9 N 15 28 8 15 1008.6 - 0.0
21/03:00pm 32.5 35.5 23.4 58 6.3 NNE 13 20 7 11 1008.8 1008.6 0.0
21/02:30pm 31.3 33.0 23.1 61 5.6 N 19 26 10 14 1009.1 - 0.0
21/02:00pm 32.7 35.3 23.3 57 6.5 N 15 24 8 13 1009.5 - 0.0
21/01:30pm 32.9 35.8 23.8 58 6.3 N 15 26 8 14 1009.8 - 0.0
21/01:00pm 32.6 35.2 23.3 58 6.4 N 15 24 8 13 1010.1 - 0.0
21/12:30pm 31.4 32.7 22.7 60 6.0 N 20 26 11 14 1010.7 - 0.0
21/12:00pm 32.6 34.9 23.5 58 6.3 ENE 17 30 9 16 1011.2 1011.0 0.0
21/11:30am 31.7 34.1 23.0 60 6.0 NE 15 26 8 14 1011.7 - 0.0
21/11:00am 31.4 34.9 23.5 63 5.5 NE 11 20 6 11 1012.0 - 0.0
21/10:30am 31.2 34.7 23.6 64 5.3 N 11 20 6 11 1012.1 - 0.0
21/10:00am 31.3 34.5 23.1 61 5.6 NE 11 19 6 10 1012.2 - 0.0
21/09:30am 31.4 34.2 23.0 61 5.8 NNE 13 24 7 13 1012.3 - 0.0
21/09:00am 31.6 34.1 23.2 61 5.8 ENE 15 24 8 13 1012.2 1012.0 0.0
21/08:30am 30.1 32.6 22.5 63 5.2 NNE 13 20 7 11 1012.1 - 0.0
21/08:00am 30.2 33.8 22.4 63 5.3 NNE 7 15 4 8 1011.8 - 0.0
21/07:30am 29.4 33.5 23.3 69 4.2 NE 7 13 4 7 1011.4 - 0.0
21/07:00am 28.2 32.9 24.0 78 2.9 NE 6 13 3 7 1011.1 - 0.0
21/06:30am 26.0 31.0 23.9 88 1.4 NE 4 7 2 4 1010.4 - 0.0
21/06:00am 25.2 30.4 22.9 87 1.6 CALM 0 0 0 0 1009.9 1009.7 0.0
21/05:30am 25.7 31.0 23.0 85 1.8 CALM 0 0 0 0 1009.7 - 0.0
21/05:00am 26.2 31.6 23.3 84 2.0 CALM 0 0 0 0 1009.4 - 0.0
21/04:30am 26.7 31.2 23.6 83 2.1 NE 6 9 3 5 1009.1 - 0.0
21/04:00am 26.8 31.3 23.7 83 2.1 NE 6 9 3 5 1008.9 - 0.0
21/03:30am 26.8 31.6 23.5 82 2.3 NE 4 7 2 4 1008.6 - 0.0
21/03:00am 27.2 31.8 23.2 79 2.7 NE 4 6 2 3 1008.8 1008.6 0.0
21/02:30am 27.9 32.1 23.5 77 3.0 NE 7 17 4 9 1009.0 - 0.0
21/02:00am 28.0 32.4 23.8 78 2.9 ENE 7 11 4 6 1009.4 - 0.0
21/01:30am 28.3 32.3 23.7 76 3.2 E 9 15 5 8 1009.7 - 0.0
21/01:00am 28.6 32.7 23.9 75 3.2 ENE 9 17 5 9 1010.1 - 0.0
21/12:30am 28.8 32.6 24.1 76 3.3 ENE 11 17 6 9 1010.4 - 0.0
21/12:00am 28.7 32.5 23.4 73 3.6 ENE 9 15 5 8 1010.8 1010.6 0.0
 
Date/Time
CST
Temp
°C
App
Temp
°C
Dew
Point
Rel
Hum
%
Delta-T
°C
Wind Press
QNH
hPa
Press
MSL
hPa
Rain
since 9 am
mm
Dir
 
Spd
km/h
Gust
km/h
Spd
kts
Gust
kts
20/11:30pm 28.9 32.3 24.0 75 3.4 NE 13 22 7 12 1010.8 - 0.0
20/11:00pm 28.9 32.4 24.2 76 3.3 NE 13 20 7 11 1010.8 - 0.0

Other Formats:

Comma delimited format used in spreadsheet applications
http://www.bom.gov.au/fwo/IDD60801/IDD60801.94140.axf

JavaScript Object Notation format (JSON) in row-major order
http://www.bom.gov.au/fwo/IDD60801/IDD60801.94140.json